Time;durP1;ratioP1;P1;durP2;ratioP2;P2;SDS_P1;SDS_P2;PMS_P1;PMS_P2;Temp;Humidity;BMP_temperature;BMP_pressure;BME280_temperature;BME280_humidity;BME280_pressure;Samples;Min_cycle;Max_cycle;Signal;HPM_P1;HPM_P2
2022/06/12 00:01:22;;;;;;;74.22;66.63;;;20.00;86.70;;;;;;5094326;28;20024;-80
2022/06/12 00:03:48;;;;;;;74.13;66.82;;;19.90;87.30;;;;;;5094329;28;20024;-80
2022/06/12 00:06:15;;;;;;;84.50;75.80;;;19.90;88.30;;;;;;5094260;28;20032;-80
2022/06/12 00:08:41;;;;;;;67.78;60.95;;;19.90;90.20;;;;;;5085208;28;20366;-80
2022/06/12 00:11:11;;;;;;;49.45;44.28;;;19.90;90.50;;;;;;5076435;28;20020;-81
2022/06/12 00:13:44;;;;;;;32.75;26.20;;;19.90;90.60;;;;;;5094087;28;20031;-80
2022/06/12 00:16:11;;;;;;;35.35;26.15;;;20.00;90.20;;;;;;5094439;28;20024;-79
2022/06/12 00:18:38;;;;;;;22.33;19.75;;;19.90;90.30;;;;;;5094414;28;20069;-80
2022/06/12 00:21:11;;;;;;;22.08;15.02;;;20.00;89.60;;;;;;5094410;28;20036;-80
2022/06/12 00:23:42;;;;;;;22.73;19.60;;;19.90;88.10;;;;;;5094207;28;20036;-79
2022/06/12 00:26:08;;;;;;;17.17;15.00;;;19.80;90.00;;;;;;5094140;28;20063;-81
2022/06/12 00:28:34;;;;;;;18.88;13.95;;;19.90;90.10;;;;;;5094253;28;20378;-80
2022/06/12 00:31:00;;;;;;;16.27;14.10;;;19.70;90.00;;;;;;5094089;28;20019;-80
2022/06/12 00:33:26;;;;;;;14.90;13.35;;;19.60;90.20;;;;;;5075431;28;20028;-79
2022/06/12 00:35:52;;;;;;;13.52;12.20;;;19.60;90.50;;;;;;5075454;28;20048;-79
2022/06/12 00:38:17;;;;;;;12.80;11.20;;;19.60;90.40;;;;;;5093639;28;20097;-79
2022/06/12 00:40:43;;;;;;;15.90;9.15;;;19.50;90.30;;;;;;5093352;28;20024;-80
2022/06/12 00:43:13;;;;;;;10.63;8.10;;;19.50;88.30;;;;;;5093537;28;20028;-81
2022/06/12 00:45:42;;;;;;;12.38;9.25;;;19.50;86.40;;;;;;5093347;28;20477;-79
2022/06/12 00:48:23;;;;;;;10.57;9.48;;;19.60;87.20;;;;;;5074818;28;20401;-81
2022/06/12 00:51:11;;;;;;;16.35;10.73;;;19.60;87.90;;;;;;5093120;28;20032;-81
2022/06/12 00:53:58;;;;;;;15.02;10.95;;;19.70;88.90;;;;;;5092865;28;20504;-81
2022/06/12 00:56:34;;;;;;;;;;;19.70;89.50;;;;;;5093554;28;20485;-80
2022/06/12 00:59:08;;;;;;;12.73;11.07;;;19.70;89.10;;;;;;5093240;28;20312;-81
2022/06/12 01:01:38;;;;;;;14.68;11.38;;;19.60;90.10;;;;;;5092881;28;20065;-80
2022/06/12 01:06:52;;;;;;;10.38;7.47;;;19.60;89.20;;;;;;5092874;28;20089;-80
2022/06/12 01:09:22;;;;;;;10.32;7.95;;;19.60;87.80;;;;;;5084527;28;20497;-80
2022/06/12 01:11:50;;;;;;;11.35;9.55;;;19.50;86.20;;;;;;5074782;28;20150;-79
2022/06/12 01:14:21;;;;;;;17.13;10.57;;;19.50;87.90;;;;;;5094375;28;20035;-80
2022/06/12 01:16:48;;;;;;;14.57;10.23;;;19.60;89.30;;;;;;5094299;28;20388;-80
2022/06/12 01:19:40;;;;;;;11.50;10.25;;;19.60;90.20;;;;;;5093326;28;20024;-79
2022/06/12 01:22:27;;;;;;;15.55;9.38;;;19.50;90.40;;;;;;5092769;28;20102;-80
2022/06/12 01:25:01;;;;;;;;;;;19.50;89.00;;;;;;5090351;28;20084;-79
2022/06/12 01:28:05;;;;;;;12.68;10.20;;;19.50;88.70;;;;;;5079585;28;19956;-81
2022/06/12 01:31:18;;;;;;;12.57;10.93;;;19.50;89.40;;;;;;5092304;28;20020;-80
2022/06/12 01:33:53;;;;;;;12.20;10.43;;;19.40;90.30;;;;;;5043347;28;20036;-80
2022/06/12 01:36:38;;;;;;;14.15;10.70;;;19.40;90.60;;;;;;5092635;28;20016;-79
2022/06/12 01:39:20;;;;;;;13.63;11.57;;;19.40;91.30;;;;;;5092466;28;20039;-80
2022/06/12 01:42:05;;;;;;;15.70;10.90;;;19.30;91.70;;;;;;5084114;28;20065;-79
2022/06/12 01:44:40;;;;;;;13.27;11.75;;;19.30;91.90;;;;;;5092610;28;20377;-80
2022/06/12 01:47:34;;;;;;;15.68;12.63;;;19.30;92.00;;;;;;5092164;28;20021;-79
2022/06/12 01:50:28;;;;;;;14.75;12.00;;;19.10;91.90;;;;;;5092219;28;20016;-80
2022/06/12 01:53:02;;;;;;;17.10;12.60;;;19.00;91.80;;;;;;5092496;28;20036;-79
2022/06/12 01:55:46;;;;;;;14.27;12.27;;;19.00;92.30;;;;;;5092426;28;20057;-80
2022/06/12 01:58:45;;;;;;;24.63;14.02;;;19.10;92.40;;;;;;5092459;28;20016;-80
2022/06/12 02:01:37;;;;;;;17.30;13.80;;;19.10;92.30;;;;;;5092442;28;20346;-79
2022/06/12 02:04:22;;;;;;;15.65;12.52;;;19.30;92.40;;;;;;5092212;28;20034;-80
2022/06/12 02:06:54;;;;;;;17.02;13.82;;;19.30;92.00;;;;;;5092143;28;20028;-80
2022/06/12 02:09:44;;;;;;;17.88;13.32;;;19.40;92.40;;;;;;5083408;28;20060;-80
2022/06/12 02:15:04;;;;;;;16.33;13.45;;;19.60;93.00;;;;;;5091233;28;20035;-81
2022/06/12 02:17:40;;;;;;;16.58;14.43;;;19.60;93.00;;;;;;5092000;28;20099;-80
2022/06/12 02:20:09;;;;;;;16.40;13.65;;;19.70;93.00;;;;;;5091665;28;20089;-80
2022/06/12 02:22:39;;;;;;;19.20;14.40;;;19.70;92.80;;;;;;5091753;28;20085;-80
2022/06/12 02:25:15;;;;;;;18.33;13.57;;;19.80;93.00;;;;;;5091618;28;20404;-80
2022/06/12 02:27:47;;;;;;;16.48;14.68;;;19.80;92.40;;;;;;5073669;28;20085;-82
2022/06/12 02:30:30;;;;;;;19.58;15.98;;;19.90;92.50;;;;;;5091615;28;20016;-81
2022/06/12 02:33:11;;;;;;;19.08;14.57;;;19.90;92.20;;;;;;5073936;28;20032;-78
2022/06/12 02:35:43;;;;;;;19.40;16.05;;;20.00;92.10;;;;;;5091613;28;20024;-80
2022/06/12 02:38:22;;;;;;;20.15;15.65;;;20.00;91.90;;;;;;5091831;28;20020;-80
2022/06/12 02:40:56;;;;;;;18.10;15.43;;;19.90;91.80;;;;;;5091595;28;20016;-79
2022/06/12 02:43:27;;;;;;;19.13;16.63;;;19.90;91.60;;;;;;5091987;28;20016;-80
2022/06/12 02:46:07;;;;;;;29.05;18.05;;;20.00;91.60;;;;;;5091370;28;20683;-80
2022/06/12 02:48:33;;;;;;;22.25;16.98;;;20.00;91.70;;;;;;5091384;28;20036;-80
2022/06/12 02:51:25;;;;;;;25.73;17.45;;;20.10;91.70;;;;;;5091198;28;20101;-80
2022/06/12 02:54:23;;;;;;;21.55;18.65;;;20.20;91.80;;;;;;5069285;28;20036;-79
2022/06/12 02:57:00;;;;;;;22.92;19.65;;;20.20;91.50;;;;;;5091539;28;20113;-80
2022/06/12 02:59:41;;;;;;;25.98;20.02;;;20.20;91.70;;;;;;5091243;28;20017;-80
2022/06/12 03:02:15;;;;;;;26.17;21.52;;;20.30;91.60;;;;;;5073650;28;20035;-80
2022/06/12 03:04:55;;;;;;;25.92;23.23;;;20.30;91.50;;;;;;5073991;28;20358;-80
2022/06/12 03:07:21;;;;;;;25.52;22.77;;;20.30;91.40;;;;;;5091966;28;20016;-80
2022/06/12 03:09:47;;;;;;;31.20;23.77;;;20.30;91.10;;;;;;5080903;28;20028;-80
2022/06/12 03:12:13;;;;;;;27.05;24.27;;;20.40;91.00;;;;;;5091843;28;20126;-80
2022/06/12 03:14:39;;;;;;;30.67;24.42;;;20.50;90.90;;;;;;5091273;28;20454;-79
2022/06/12 03:17:05;;;;;;;29.02;24.20;;;20.60;90.70;;;;;;5091520;28;20024;-79
2022/06/12 03:19:42;;;;;;;27.33;24.50;;;20.70;89.00;;;;;;5091511;28;20073;-80
2022/06/12 03:23:05;;;;;;;29.50;25.70;;;20.50;87.70;;;;;;5091562;28;20055;-79
2022/06/12 03:25:45;;;;;;;28.70;24.10;;;20.50;87.90;;;;;;5077158;28;20606;-81
2022/06/12 03:28:45;;;;;;;25.88;22.48;;;20.50;87.80;;;;;;5091619;28;20133;-79
2022/06/12 03:31:16;;;;;;;23.17;20.67;;;20.70;87.70;;;;;;5103778;28;20024;-79
2022/06/12 03:34:17;;;;;;;23.65;19.15;;;20.80;85.50;;;;;;5088576;28;20027;-79
2022/06/12 03:36:54;;;;;;;26.35;20.17;;;21.00;85.20;;;;;;5093535;28;20020;-78
2022/06/12 03:39:32;;;;;;;25.45;19.17;;;21.20;84.30;;;;;;5094637;28;20481;-80
2022/06/12 03:42:06;;;;;;;23.17;18.83;;;21.30;82.50;;;;;;5094140;28;20039;-80
2022/06/12 03:44:44;;;;;;;29.33;25.20;;;21.40;82.30;;;;;;5094361;28;20465;-80
2022/06/12 03:47:23;;;;;;;28.73;25.15;;;21.40;82.60;;;;;;5094438;28;20481;-80
2022/06/12 03:50:01;;;;;;;23.00;20.58;;;21.40;83.30;;;;;;5082582;28;20043;-79
2022/06/12 03:52:40;;;;;;;21.27;19.08;;;21.60;81.80;;;;;;5090839;28;20032;-79
2022/06/12 03:55:18;;;;;;;25.35;21.35;;;21.60;80.10;;;;;;5094623;28;20016;-80
2022/06/12 03:57:53;;;;;;;23.00;18.98;;;21.70;80.60;;;;;;5094652;28;20016;-80
2022/06/12 04:00:29;;;;;;;23.38;20.15;;;21.80;80.30;;;;;;5094266;28;20016;-80
2022/06/12 04:03:13;;;;;;;21.75;19.48;;;21.80;80.10;;;;;;5075983;28;20024;-79
2022/06/12 04:05:46;;;;;;;28.48;21.98;;;21.90;80.00;;;;;;5094295;28;20035;-80
2022/06/12 04:08:19;;;;;;;26.80;24.15;;;21.80;79.70;;;;;;5080281;28;20032;-79
2022/06/12 04:10:46;;;;;;;23.48;20.20;;;21.80;79.20;;;;;;5094070;28;20023;-78
2022/06/12 04:13:15;;;;;;;23.73;21.02;;;21.70;79.70;;;;;;5075728;28;20020;-78
2022/06/12 04:16:04;;;;;;;29.15;22.17;;;21.80;80.00;;;;;;5094065;28;20021;-78
2022/06/12 04:18:31;;;;;;;22.50;20.13;;;21.90;79.10;;;;;;5081027;28;20111;-77
2022/06/12 04:20:57;;;;;;;;;;;22.00;78.10;;;;;;5094676;28;20021;-77
2022/06/12 04:23:41;;;;;;;23.23;18.45;;;22.20;78.50;;;;;;5093898;28;19991;-79
2022/06/12 04:26:27;;;;;;;22.40;13.38;;;22.40;76.10;;;;;;5093755;28;20113;-80
2022/06/12 04:29:27;;;;;;;17.20;13.50;;;22.30;73.60;;;;;;5082105;28;20450;-78
2022/06/12 04:31:56;;;;;;;22.92;16.92;;;22.40;74.70;;;;;;5082368;28;20024;-78
2022/06/12 04:34:31;;;;;;;19.15;13.07;;;22.40;73.10;;;;;;5093533;28;20073;-79
2022/06/12 04:37:03;;;;;;;21.02;15.65;;;22.40;72.90;;;;;;5092665;28;20020;-79
2022/06/12 04:39:32;;;;;;;13.07;11.85;;;22.40;72.50;;;;;;5093602;28;20119;-78
2022/06/12 04:41:58;;;;;;;14.88;11.98;;;22.60;71.90;;;;;;5092653;28;20478;-78
2022/06/12 04:44:25;;;;;;;12.75;11.43;;;23.00;71.40;;;;;;5083870;28;20106;-80
2022/06/12 04:46:54;;;;;;;13.18;10.57;;;23.20;69.80;;;;;;5074789;28;20066;-78
2022/06/12 04:49:24;;;;;;;18.38;10.38;;;23.40;69.20;;;;;;5093539;28;20035;-79
2022/06/12 04:51:51;;;;;;;11.85;10.65;;;23.60;68.00;;;;;;5093041;28;20061;-78
2022/06/12 04:54:17;;;;;;;11.88;10.50;;;23.60;67.30;;;;;;5092851;28;20027;-78
2022/06/12 04:56:43;;;;;;;14.43;11.03;;;23.60;67.50;;;;;;5093036;28;20099;-79
2022/06/12 04:59:12;;;;;;;15.25;11.18;;;23.60;67.50;;;;;;5093183;28;20051;-79
2022/06/12 05:01:38;;;;;;;13.70;10.65;;;23.50;67.70;;;;;;5075231;28;20022;-80
2022/06/12 05:04:05;;;;;;;12.80;11.30;;;23.50;68.00;;;;;;5074844;28;20388;-78
2022/06/12 05:06:32;;;;;;;;;;;23.60;68.20;;;;;;5075199;28;20043;-78
2022/06/12 05:08:58;;;;;;;15.77;11.15;;;23.70;68.90;;;;;;5074669;28;19960;-78
2022/06/12 05:11:25;;;;;;;11.98;10.30;;;23.70;67.90;;;;;;5092712;28;20461;-78
2022/06/12 05:13:51;;;;;;;;;;;23.80;66.10;;;;;;5093104;28;20031;-81
2022/06/12 05:16:35;;;;;;;13.88;10.57;;;23.80;67.20;;;;;;5092576;28;20357;-80
2022/06/12 05:19:03;;;;;;;13.25;8.88;;;23.90;66.70;;;;;;5093046;28;20020;-78
2022/06/12 05:21:30;;;;;;;11.00;9.27;;;24.00;65.50;;;;;;5074523;28;20381;-79
2022/06/12 05:23:57;;;;;;;14.98;10.93;;;24.00;64.90;;;;;;5092893;28;20043;-80
2022/06/12 05:26:23;;;;;;;8.70;7.80;;;24.10;65.70;;;;;;5089586;28;20031;-78
2022/06/12 05:28:50;;;;;;;11.48;8.23;;;24.20;63.90;;;;;;5081793;28;20032;-79
2022/06/12 05:31:19;;;;;;;10.65;8.63;;;24.40;63.70;;;;;;5092448;28;20028;-80
2022/06/12 05:33:46;;;;;;;10.57;7.97;;;24.50;63.70;;;;;;5092364;28;20027;-79
2022/06/12 05:36:14;;;;;;;9.98;7.35;;;24.80;63.40;;;;;;5074303;28;20074;-79
2022/06/12 05:38:41;;;;;;;13.40;7.18;;;25.30;62.80;;;;;;5092841;28;20024;-80
2022/06/12 05:41:07;;;;;;;;;;;25.60;60.20;;;;;;5092755;28;20076;-79
2022/06/12 05:43:33;;;;;;;13.37;7.53;;;25.70;61.00;;;;;;5074417;28;20758;-79
2022/06/12 05:45:59;;;;;;;10.10;6.78;;;25.70;60.50;;;;;;5092143;28;20112;-79
2022/06/12 05:48:25;;;;;;;11.07;7.63;;;25.60;59.50;;;;;;5091267;28;20063;-79
2022/06/12 05:50:55;;;;;;;9.00;8.20;;;25.30;60.50;;;;;;5092193;28;20460;-82
2022/06/12 05:53:23;;;;;;;9.80;7.35;;;25.70;60.90;;;;;;5062033;28;20031;-81
2022/06/12 05:55:50;;;;;;;10.50;7.95;;;27.10;59.30;;;;;;5069433;28;20050;-81
2022/06/12 05:58:17;;;;;;;8.73;7.05;;;29.00;54.80;;;;;;5085863;28;20020;-80
2022/06/12 06:00:43;;;;;;;9.00;6.90;;;30.70;50.80;;;;;;5084188;28;20656;-79
2022/06/12 06:03:09;;;;;;;10.43;7.60;;;32.00;47.80;;;;;;5092352;28;20038;-80
2022/06/12 06:05:37;;;;;;;9.83;6.13;;;33.20;45.40;;;;;;5092370;28;20028;-82
2022/06/12 06:08:03;;;;;;;7.40;6.20;;;34.00;43.40;;;;;;5092055;28;20028;-80
2022/06/12 06:10:29;;;;;;;10.68;7.47;;;34.50;42.30;;;;;;5086395;28;20024;-80
2022/06/12 06:12:56;;;;;;;9.90;6.70;;;35.20;41.30;;;;;;5094306;28;20020;-79
2022/06/12 06:15:22;;;;;;;11.20;7.38;;;36.00;41.40;;;;;;5095934;28;20097;-78
2022/06/12 06:17:49;;;;;;;8.38;7.30;;;36.90;39.90;;;;;;5095649;28;20093;-79
2022/06/12 06:20:17;;;;;;;;;;;37.70;38.00;;;;;;5077781;28;20039;-80
2022/06/12 06:22:43;;;;;;;7.85;6.00;;;37.40;39.60;;;;;;5095706;28;20278;-80
2022/06/12 06:25:10;;;;;;;6.35;5.55;;;37.30;36.90;;;;;;5095488;28;20024;-78
2022/06/12 06:27:36;;;;;;;9.60;6.30;;;36.80;37.40;;;;;;5080592;28;20047;-79
2022/06/12 06:30:03;;;;;;;9.30;6.20;;;37.50;37.50;;;;;;5096017;28;20032;-78
2022/06/12 06:32:29;;;;;;;9.00;6.80;;;37.80;36.80;;;;;;5076647;28;20028;-78
2022/06/12 06:34:55;;;;;;;9.70;6.43;;;37.90;36.60;;;;;;5095919;28;20085;-79
2022/06/12 06:37:21;;;;;;;10.13;7.60;;;37.40;36.40;;;;;;5077187;28;20021;-78
2022/06/12 06:39:48;;;;;;;9.75;6.28;;;36.30;37.20;;;;;;5112594;28;20039;-81
2022/06/12 06:42:14;;;;;;;8.60;7.70;;;35.50;38.70;;;;;;5099148;28;20161;-80
2022/06/12 06:47:24;;;;;;;9.20;7.38;;;36.70;37.80;;;;;;5094257;28;20043;-79
2022/06/12 06:49:49;;;;;;;9.82;7.70;;;36.90;37.60;;;;;;5082146;28;20024;-78
2022/06/12 06:52:15;;;;;;;11.70;8.03;;;36.10;37.50;;;;;;5096725;28;20098;-78
2022/06/12 06:54:42;;;;;;;8.87;7.97;;;34.40;39.10;;;;;;5097680;28;20110;-78
2022/06/12 06:57:09;;;;;;;9.13;7.40;;;32.50;41.90;;;;;;5095408;28;20032;-78
2022/06/12 06:59:35;;;;;;;11.45;7.90;;;31.00;44.20;;;;;;5076538;28;20035;-79
2022/06/12 07:02:01;;;;;;;13.95;8.63;;;29.80;46.50;;;;;;5081308;28;20087;-79
2022/06/12 07:04:27;;;;;;;12.45;7.88;;;29.00;48.20;;;;;;5080845;28;20078;-80
2022/06/12 07:06:53;;;;;;;14.75;8.85;;;28.30;49.20;;;;;;5080820;28;20084;-78
2022/06/12 07:09:19;;;;;;;10.98;9.00;;;27.40;50.80;;;;;;5085714;28;20044;-79
2022/06/12 07:11:45;;;;;;;12.60;7.88;;;27.00;52.20;;;;;;5100313;28;20099;-78
2022/06/12 07:14:11;;;;;;;11.80;7.15;;;27.70;52.90;;;;;;5080892;28;20048;-79
2022/06/12 07:16:39;;;;;;;7.23;6.53;;;30.30;49.00;;;;;;5075902;28;20009;-79
2022/06/12 07:19:06;;;;;;;11.82;6.93;;;32.60;45.10;;;;;;5078467;28;20095;-79
2022/06/12 07:21:32;;;;;;;10.07;6.25;;;35.00;41.90;;;;;;5097726;28;20073;-80
2022/06/12 07:23:58;;;;;;;7.88;5.10;;;37.10;38.70;;;;;;5097536;28;20024;-78
2022/06/12 07:26:35;;;;;;;13.40;8.73;;;38.70;36.00;;;;;;5080546;28;20024;-77
2022/06/12 07:29:02;;;;;;;7.13;6.20;;;37.70;35.50;;;;;;5099493;28;20032;-79
2022/06/12 07:31:28;;;;;;;10.77;5.05;;;35.20;37.20;;;;;;5080703;28;20362;-80
2022/06/12 07:33:54;;;;;;;5.90;4.70;;;33.20;39.90;;;;;;5098596;28;20132;-79
2022/06/12 07:36:20;;;;;;;7.53;6.03;;;33.50;40.50;;;;;;5098980;28;20253;-79
2022/06/12 07:38:49;;;;;;;7.50;5.30;;;34.20;39.40;;;;;;5084720;28;20498;-78
2022/06/12 07:41:17;;;;;;;9.57;5.85;;;34.90;38.80;;;;;;5116090;28;20309;-80
2022/06/12 07:43:44;;;;;;;7.20;4.90;;;35.90;38.20;;;;;;5099237;28;20020;-79
2022/06/12 07:46:12;;;;;;;7.82;5.63;;;37.60;36.90;;;;;;5098828;28;20108;-78
2022/06/12 07:48:40;;;;;;;6.70;4.68;;;39.40;35.30;;;;;;5098699;28;20028;-79
2022/06/12 07:51:10;;;;;;;4.20;3.80;;;40.60;33.90;;;;;;5097745;28;20032;-79
2022/06/12 07:53:37;;;;;;;6.40;3.88;;;41.60;32.50;;;;;;5111664;28;20024;-79
2022/06/12 07:56:05;;;;;;;4.53;4.07;;;42.20;31.50;;;;;;5097315;28;20016;-78
2022/06/12 07:58:31;;;;;;;5.75;3.42;;;42.90;31.10;;;;;;5114052;28;20082;-78
2022/06/12 08:01:01;;;;;;;9.63;4.03;;;43.80;30.00;;;;;;5095355;28;20016;-78
2022/06/12 08:03:28;;;;;;;5.80;4.15;;;44.10;30.00;;;;;;5093947;28;20024;-78
2022/06/12 08:05:59;;;;;;;4.95;3.75;;;42.20;30.20;;;;;;5080933;28;20027;-79
2022/06/12 08:08:25;;;;;;;6.25;4.20;;;39.80;31.40;;;;;;5097983;28;20024;-79
2022/06/12 08:10:51;;;;;;;;;;;37.10;33.30;;;;;;5097079;28;20454;-79
2022/06/12 08:13:17;;;;;;;5.15;4.28;;;34.80;35.00;;;;;;5079041;28;19908;-79
2022/06/12 08:15:46;;;;;;;6.77;6.07;;;32.80;37.80;;;;;;5081176;28;20460;-80
2022/06/12 08:18:13;;;;;;;7.22;5.28;;;31.20;40.10;;;;;;5098669;28;20058;-79
2022/06/12 08:20:45;;;;;;;9.32;5.35;;;29.70;42.40;;;;;;5063065;28;20132;-81
2022/06/12 08:23:52;;;;;;;7.30;5.03;;;28.80;44.20;;;;;;5091758;28;20020;-78
2022/06/12 08:26:20;;;;;;;6.80;4.80;;;28.10;43.70;;;;;;5090411;28;20032;-79
2022/06/12 08:28:51;;;;;;;7.05;4.68;;;27.40;44.90;;;;;;5095214;28;20035;-80
2022/06/12 08:31:21;;;;;;;8.23;4.88;;;26.80;45.90;;;;;;5100347;28;20016;-78
2022/06/12 08:33:49;;;;;;;8.50;5.95;;;26.40;46.70;;;;;;5102194;28;20009;-78
2022/06/12 08:36:18;;;;;;;7.25;6.00;;;26.20;47.90;;;;;;5088312;28;20024;-79
2022/06/12 08:38:46;;;;;;;5.85;4.80;;;26.10;48.40;;;;;;5098752;28;20024;-78
2022/06/12 08:41:31;;;;;;;7.95;4.43;;;26.20;48.20;;;;;;5098210;28;20174;-77
2022/06/12 08:44:22;;;;;;;5.75;4.80;;;26.30;48.50;;;;;;5100456;28;20040;-79
2022/06/12 08:46:54;;;;;;;8.93;5.07;;;26.60;48.10;;;;;;5093228;28;20036;-79
2022/06/12 08:49:50;;;;;;;6.72;5.15;;;27.10;48.20;;;;;;5081454;28;20038;-79
2022/06/12 08:52:33;;;;;;;6.13;4.00;;;27.40;46.80;;;;;;5080823;28;20047;-79
2022/06/12 08:55:16;;;;;;;4.93;4.15;;;27.40;44.60;;;;;;5086779;28;20023;-79
2022/06/12 08:57:58;;;;;;;6.70;4.72;;;26.90;44.80;;;;;;5100280;28;20016;-76
2022/06/12 09:00:28;;;;;;;6.93;5.03;;;26.50;46.20;;;;;;5077605;28;20116;-82
2022/06/12 09:02:55;;;;;;;10.13;6.40;;;26.40;46.50;;;;;;5080093;28;20024;-81
2022/06/12 09:05:29;;;;;;;6.03;4.32;;;26.50;46.70;;;;;;5099791;28;20023;-81
2022/06/12 09:08:31;;;;;;;6.68;4.32;;;26.60;46.00;;;;;;5096699;28;20050;-80
2022/06/12 09:11:31;;;;;;;9.30;4.90;;;26.80;46.40;;;;;;5063493;28;20062;-81
2022/06/12 09:14:14;;;;;;;9.18;5.93;;;27.10;45.80;;;;;;5103241;28;20031;-80
2022/06/12 09:16:55;;;;;;;5.53;4.55;;;27.60;44.50;;;;;;5103080;28;20015;-82
2022/06/12 09:19:49;;;;;;;4.50;4.10;;;29.70;42.70;;;;;;5099339;28;20321;-81
2022/06/12 09:22:47;;;;;;;4.38;3.83;;;31.10;39.80;;;;;;5098830;28;20020;-79
2022/06/12 09:25:25;;;;;;;8.18;3.83;;;31.60;39.10;;;;;;5082873;28;20505;-83
2022/06/12 09:28:03;;;;;;;6.75;3.72;;;32.70;38.70;;;;;;5094981;28;20051;-81
2022/06/12 09:30:53;;;;;;;6.78;3.88;;;35.20;36.80;;;;;;5098408;28;20056;-82
2022/06/12 09:33:46;;;;;;;6.82;3.97;;;37.10;34.90;;;;;;5093617;28;20024;-81
2022/06/12 09:36:32;;;;;;;8.27;4.13;;;37.30;34.10;;;;;;5096765;28;20039;-81
2022/06/12 09:39:04;;;;;;;7.97;4.68;;;38.20;32.60;;;;;;5112309;28;20032;-79
2022/06/12 09:41:44;;;;;;;6.70;4.20;;;37.50;32.20;;;;;;5073041;28;20020;-80
2022/06/12 09:44:18;;;;;;;5.10;3.60;;;36.10;32.60;;;;;;5073358;28;20028;-79
2022/06/12 09:47:14;;;;;;;7.63;4.10;;;34.50;34.00;;;;;;5092436;28;20024;-81
2022/06/12 09:50:06;;;;;;;8.68;4.82;;;33.90;35.60;;;;;;5098540;28;20035;-81
2022/06/12 09:52:51;;;;;;;5.40;4.10;;;33.80;35.80;;;;;;5097024;28;20043;-82
2022/06/12 09:55:48;;;;;;;4.30;3.33;;;34.30;35.60;;;;;;5078998;28;20020;-87
2022/06/12 09:58:26;;;;;;;5.38;3.60;;;35.90;34.60;;;;;;5085138;28;20040;-87
2022/06/12 10:01:02;;;;;;;5.97;3.70;;;37.60;32.90;;;;;;5096719;28;20016;-86
2022/06/12 10:03:39;;;;;;;6.30;3.72;;;37.70;31.70;;;;;;5079423;28;20062;-89
2022/06/12 10:06:23;;;;;;;6.78;3.53;;;37.60;31.50;;;;;;5098519;28;20020;-89
2022/06/12 10:09:06;;;;;;;5.45;3.75;;;37.40;31.70;;;;;;5088011;28;20085;-88
2022/06/12 10:11:42;;;;;;;8.00;4.15;;;37.80;32.10;;;;;;5085434;28;20039;-87
2022/06/12 10:14:10;;;;;;;9.45;4.30;;;38.20;31.60;;;;;;5096401;28;20024;-88
2022/06/12 10:16:45;;;;;;;5.20;3.60;;;37.90;31.80;;;;;;5097344;28;20031;-86
2022/06/12 10:19:30;;;;;;;6.88;3.90;;;36.80;32.00;;;;;;5098250;28;20120;-87
2022/06/12 10:22:00;;;;;;;8.07;4.45;;;35.20;34.00;;;;;;5098520;28;20024;-90
2022/06/12 10:24:29;;;;;;;9.23;4.55;;;33.90;34.80;;;;;;5100010;28;20028;-91
2022/06/12 10:26:59;;;;;;;5.78;5.00;;;33.00;36.60;;;;;;5097758;28;20423;-89
2022/06/12 10:29:26;;;;;;;7.60;4.35;;;32.20;37.10;;;;;;5095030;28;20089;-88
2022/06/12 10:32:01;;;;;;;8.18;5.63;;;31.70;37.60;;;;;;5104099;28;20012;-88
2022/06/12 10:34:30;;;;;;;9.20;4.95;;;31.10;37.80;;;;;;5088534;28;20482;-91
2022/06/12 10:37:08;;;;;;;7.32;5.03;;;30.60;39.40;;;;;;5080092;28;20016;-90
2022/06/12 10:39:35;;;;;;;7.05;3.95;;;30.00;39.50;;;;;;5104741;28;20119;-89
2022/06/12 10:42:06;;;;;;;6.43;4.87;;;29.50;39.80;;;;;;5119156;28;20020;-92
2022/06/12 10:44:37;;;;;;;10.95;5.75;;;29.20;40.40;;;;;;5101890;28;20030;-88
2022/06/12 10:47:28;;;;;;;8.30;4.28;;;28.70;41.30;;;;;;5103665;28;20016;-87
2022/06/12 10:50:06;;;;;;;6.53;4.35;;;28.40;41.30;;;;;;5096672;28;20460;-88
2022/06/12 10:52:34;;;;;;;6.60;4.45;;;28.30;42.30;;;;;;5094660;28;20046;-88
2022/06/12 10:55:00;;;;;;;8.77;5.32;;;28.20;42.60;;;;;;5103379;28;20020;-86
2022/06/12 10:57:51;;;;;;;6.97;5.25;;;28.30;42.50;;;;;;5102445;28;20052;-85
2022/06/12 11:00:24;;;;;;;7.13;4.63;;;28.20;41.90;;;;;;5100293;28;20024;-85
2022/06/12 11:03:06;;;;;;;8.52;4.97;;;27.90;42.90;;;;;;5082681;28;20073;-85
2022/06/12 11:05:40;;;;;;;13.52;6.00;;;27.80;43.00;;;;;;5094978;28;20028;-83
2022/06/12 11:08:11;;;;;;;8.85;4.80;;;27.90;43.30;;;;;;5093850;28;20025;-84
2022/06/12 11:10:38;;;;;;;9.93;5.90;;;28.10;43.30;;;;;;5074335;28;20024;-92
2022/06/12 11:13:22;;;;;;;7.90;5.05;;;28.30;43.00;;;;;;5085417;28;20069;-89
2022/06/12 11:16:26;;;;;;;7.03;4.88;;;28.20;42.30;;;;;;5085767;28;20028;-86
2022/06/12 11:19:22;;;;;;;6.22;4.53;;;28.10;42.50;;;;;;5082495;28;20405;-92
2022/06/12 11:21:57;;;;;;;5.60;5.05;;;27.80;43.80;;;;;;5098938;28;20024;-91
2022/06/12 11:25:03;;;;;;;6.07;4.90;;;27.70;44.00;;;;;;5096728;28;20044;-89
2022/06/12 11:27:50;;;;;;;6.72;4.95;;;27.60;43.40;;;;;;5097799;28;20047;-89
2022/06/12 11:30:34;;;;;;;7.68;4.85;;;27.00;44.00;;;;;;5082131;28;20106;-88
2022/06/12 11:33:17;;;;;;;6.43;4.97;;;26.70;44.30;;;;;;5114283;28;20043;-91
2022/06/12 11:36:21;;;;;;;7.35;5.22;;;26.70;44.00;;;;;;5088566;28;20028;-94
2022/06/12 11:39:15;;;;;;;7.05;4.65;;;26.80;44.30;;;;;;5103382;28;20017;-87
2022/06/12 11:41:57;;;;;;;10.70;5.45;;;27.00;44.20;;;;;;5096932;28;20032;-88
2022/06/12 11:44:29;;;;;;;7.53;5.22;;;27.10;44.50;;;;;;5105020;28;20102;-87
2022/06/12 11:47:43;;;;;;;13.20;6.65;;;27.30;44.30;;;;;;5112453;28;20074;-85
2022/06/12 11:50:53;;;;;;;6.68;5.30;;;27.40;44.70;;;;;;5042390;28;20096;-88
2022/06/12 11:53:43;;;;;;;5.35;4.85;;;27.40;44.80;;;;;;5013273;28;20454;-88
2022/06/12 11:56:45;;;;;;;6.38;5.50;;;26.90;45.60;;;;;;5026009;28;20060;-88
2022/06/12 11:59:23;;;;;;;11.85;6.18;;;26.90;46.50;;;;;;5039213;28;20113;-87
2022/06/12 12:02:27;;;;;;;11.20;5.10;;;26.60;47.30;;;;;;5024667;28;20033;-91
2022/06/12 12:05:13;;;;;;;13.25;5.68;;;26.80;46.60;;;;;;5016151;28;20072;-87
2022/06/12 12:07:48;;;;;;;5.78;4.82;;;27.00;46.80;;;;;;5037295;28;20053;-86
2022/06/12 12:10:28;;;;;;;6.18;5.45;;;27.00;46.10;;;;;;5039146;28;20041;-91
2022/06/12 12:13:02;;;;;;;7.00;5.47;;;26.90;47.10;;;;;;5037937;28;20055;-89
2022/06/12 12:15:49;;;;;;;5.25;4.75;;;27.10;46.60;;;;;;5022467;28;20542;-91
2022/06/12 12:18:57;;;;;;;8.68;6.75;;;27.10;46.40;;;;;;5018339;28;20029;-87
2022/06/12 12:21:48;;;;;;;9.77;5.82;;;27.20;47.10;;;;;;5041068;28;20044;-91
2022/06/12 12:24:24;;;;;;;7.53;5.88;;;27.00;46.30;;;;;;5051009;28;20123;-90
2022/06/12 12:26:53;;;;;;;8.73;5.67;;;27.00;47.50;;;;;;5090832;28;20025;-92
2022/06/12 12:29:23;;;;;;;10.10;6.47;;;27.10;46.80;;;;;;5062415;28;20032;-87
2022/06/12 12:31:50;;;;;;;9.43;5.45;;;27.20;46.70;;;;;;5075146;28;20023;-91
2022/06/12 12:34:19;;;;;;;9.95;5.03;;;27.00;45.80;;;;;;5097390;28;20072;-90
2022/06/12 12:42:30;;;;;;;11.40;4.82;;;26.60;47.30;;;;;;5071937;28;20099;-93
2022/06/12 12:45:24;;;;;;;9.45;5.32;;;26.50;47.50;;;;;;5072949;28;20033;-86
2022/06/12 12:48:12;;;;;;;7.15;4.85;;;;;;;;;;5045957;28;20027;-83
2022/06/12 12:50:49;;;;;;;7.63;5.10;;;26.40;47.00;;;;;;5096219;28;20053;-86
2022/06/12 12:53:27;;;;;;;7.28;4.30;;;26.30;45.60;;;;;;5079179;28;20031;-83
2022/06/12 12:56:01;;;;;;;8.93;5.45;;;26.10;44.60;;;;;;5096698;28;20051;-83
2022/06/12 12:58:28;;;;;;;7.13;4.50;;;26.00;45.00;;;;;;5096702;28;20028;-86
2022/06/12 13:01:21;;;;;;;7.38;4.53;;;25.90;46.00;;;;;;5097264;28;20110;-86
2022/06/12 13:03:55;;;;;;;10.32;5.45;;;25.80;46.50;;;;;;5097294;28;20020;-85
2022/06/12 13:06:39;;;;;;;10.02;5.45;;;25.80;47.50;;;;;;5098338;28;20012;-87
2022/06/12 13:09:36;;;;;;;8.27;6.22;;;25.70;47.60;;;;;;5079976;28;20047;-85
2022/06/12 13:12:25;;;;;;;9.45;6.03;;;25.70;47.60;;;;;;5086996;28;20123;-86
2022/06/12 13:15:10;;;;;;;9.23;5.93;;;25.60;47.90;;;;;;5096983;28;20401;-86
2022/06/12 13:17:41;;;;;;;7.03;5.43;;;25.60;48.20;;;;;;5098185;28;20513;-86
2022/06/12 13:20:31;;;;;;;5.90;5.30;;;25.60;49.00;;;;;;5080281;28;20017;-84
2022/06/12 13:23:10;;;;;;;10.25;5.93;;;25.40;47.90;;;;;;5093696;28;20329;-86
2022/06/12 13:25:41;;;;;;;11.05;6.63;;;25.40;48.50;;;;;;5079658;28;20098;-87
2022/06/12 13:28:28;;;;;;;10.57;6.22;;;25.40;49.30;;;;;;5096726;28;20111;-87
2022/06/12 13:30:57;;;;;;;7.65;5.55;;;25.40;49.80;;;;;;5113244;28;20051;-87
2022/06/12 13:33:27;;;;;;;10.55;6.47;;;25.40;49.80;;;;;;5094475;28;20024;-86
2022/06/12 13:36:00;;;;;;;7.30;5.53;;;25.30;49.90;;;;;;5088076;28;20028;-86
2022/06/12 13:38:36;;;;;;;6.95;5.05;;;25.20;50.10;;;;;;5078936;28;20027;-84